sensor_id;sensor_type;location;lat;lon;timestamp;P1;durP1;ratioP1;P2;durP2;ratioP2
60722;SDS011;46574;52.818;6.516;2024-02-21T00:02:09;21.00;;;11.20;;
60722;SDS011;46574;52.818;6.516;2024-02-21T00:04:35;17.50;;;10.82;;
60722;SDS011;46574;52.818;6.516;2024-02-21T00:07:01;16.45;;;10.70;;
60722;SDS011;46574;52.818;6.516;2024-02-21T00:09:27;17.73;;;10.65;;
60722;SDS011;46574;52.818;6.516;2024-02-21T00:11:53;14.52;;;10.65;;
60722;SDS011;46574;52.818;6.516;2024-02-21T00:14:18;15.50;;;10.60;;
60722;SDS011;46574;52.818;6.516;2024-02-21T00:16:45;18.88;;;11.75;;
60722;SDS011;46574;52.818;6.516;2024-02-21T00:19:10;17.13;;;11.93;;
60722;SDS011;46574;52.818;6.516;2024-02-21T00:21:36;17.85;;;12.90;;
60722;SDS011;46574;52.818;6.516;2024-02-21T00:24:01;16.50;;;11.55;;
60722;SDS011;46574;52.818;6.516;2024-02-21T00:26:27;16.15;;;11.38;;
60722;SDS011;46574;52.818;6.516;2024-02-21T00:28:53;18.15;;;11.60;;
60722;SDS011;46574;52.818;6.516;2024-02-21T00:31:18;17.83;;;10.45;;
60722;SDS011;46574;52.818;6.516;2024-02-21T00:33:44;20.40;;;11.00;;
60722;SDS011;46574;52.818;6.516;2024-02-21T00:36:09;21.75;;;11.10;;
60722;SDS011;46574;52.818;6.516;2024-02-21T00:38:35;16.92;;;10.90;;
60722;SDS011;46574;52.818;6.516;2024-02-21T00:41:01;19.70;;;10.82;;
60722;SDS011;46574;52.818;6.516;2024-02-21T00:43:26;20.77;;;10.88;;
60722;SDS011;46574;52.818;6.516;2024-02-21T00:45:52;19.80;;;10.60;;
60722;SDS011;46574;52.818;6.516;2024-02-21T00:48:18;20.80;;;10.25;;
60722;SDS011;46574;52.818;6.516;2024-02-21T00:50:43;17.90;;;9.95;;
60722;SDS011;46574;52.818;6.516;2024-02-21T00:53:09;17.27;;;9.32;;
60722;SDS011;46574;52.818;6.516;2024-02-21T00:55:35;15.50;;;9.02;;
60722;SDS011;46574;52.818;6.516;2024-02-21T00:58:01;19.13;;;8.55;;
60722;SDS011;46574;52.818;6.516;2024-02-21T01:00:26;17.05;;;8.82;;
60722;SDS011;46574;52.818;6.516;2024-02-21T01:02:52;17.77;;;9.73;;
60722;SDS011;46574;52.818;6.516;2024-02-21T01:05:18;16.17;;;8.82;;
60722;SDS011;46574;52.818;6.516;2024-02-21T01:07:44;15.65;;;8.52;;
60722;SDS011;46574;52.818;6.516;2024-02-21T01:10:10;17.63;;;8.50;;
60722;SDS011;46574;52.818;6.516;2024-02-21T01:12:36;19.52;;;8.77;;
60722;SDS011;46574;52.818;6.516;2024-02-21T01:15:02;15.10;;;7.82;;
60722;SDS011;46574;52.818;6.516;2024-02-21T01:17:28;17.08;;;8.90;;
60722;SDS011;46574;52.818;6.516;2024-02-21T01:19:53;17.08;;;8.15;;
60722;SDS011;46574;52.818;6.516;2024-02-21T01:22:19;13.98;;;7.85;;
60722;SDS011;46574;52.818;6.516;2024-02-21T01:24:44;16.60;;;8.18;;
60722;SDS011;46574;52.818;6.516;2024-02-21T01:27:10;17.58;;;8.05;;
60722;SDS011;46574;52.818;6.516;2024-02-21T01:29:36;16.20;;;7.63;;
60722;SDS011;46574;52.818;6.516;2024-02-21T01:32:01;15.25;;;7.53;;
60722;SDS011;46574;52.818;6.516;2024-02-21T01:34:27;17.52;;;7.63;;
60722;SDS011;46574;52.818;6.516;2024-02-21T01:36:53;14.27;;;7.38;;
60722;SDS011;46574;52.818;6.516;2024-02-21T01:39:18;18.73;;;7.28;;
60722;SDS011;46574;52.818;6.516;2024-02-21T01:41:44;13.73;;;7.47;;
60722;SDS011;46574;52.818;6.516;2024-02-21T01:44:09;16.65;;;7.78;;
60722;SDS011;46574;52.818;6.516;2024-02-21T01:46:35;15.65;;;7.80;;
60722;SDS011;46574;52.818;6.516;2024-02-21T01:49:01;13.57;;;7.65;;
60722;SDS011;46574;52.818;6.516;2024-02-21T01:51:27;15.18;;;7.32;;
60722;SDS011;46574;52.818;6.516;2024-02-21T01:53:53;19.40;;;8.88;;
60722;SDS011;46574;52.818;6.516;2024-02-21T01:56:21;20.83;;;7.90;;
60722;SDS011;46574;52.818;6.516;2024-02-21T01:58:47;20.55;;;8.38;;
60722;SDS011;46574;52.818;6.516;2024-02-21T02:01:14;14.60;;;8.15;;
60722;SDS011;46574;52.818;6.516;2024-02-21T02:03:39;17.67;;;8.18;;
60722;SDS011;46574;52.818;6.516;2024-02-21T02:06:06;18.17;;;8.68;;
60722;SDS011;46574;52.818;6.516;2024-02-21T02:08:31;19.65;;;9.30;;
60722;SDS011;46574;52.818;6.516;2024-02-21T02:10:58;20.85;;;9.75;;
60722;SDS011;46574;52.818;6.516;2024-02-21T02:13:24;21.80;;;9.75;;
60722;SDS011;46574;52.818;6.516;2024-02-21T02:15:50;20.55;;;10.18;;
60722;SDS011;46574;52.818;6.516;2024-02-21T02:18:16;19.48;;;9.32;;
60722;SDS011;46574;52.818;6.516;2024-02-21T02:20:43;21.80;;;9.82;;
60722;SDS011;46574;52.818;6.516;2024-02-21T02:25:53;20.05;;;9.77;;
60722;SDS011;46574;52.818;6.516;2024-02-21T02:28:18;21.80;;;11.18;;
60722;SDS011;46574;52.818;6.516;2024-02-21T02:30:45;21.90;;;10.93;;
60722;SDS011;46574;52.818;6.516;2024-02-21T02:33:11;23.83;;;11.18;;
60722;SDS011;46574;52.818;6.516;2024-02-21T02:35:37;25.67;;;10.93;;
60722;SDS011;46574;52.818;6.516;2024-02-21T02:38:03;23.55;;;10.57;;
60722;SDS011;46574;52.818;6.516;2024-02-21T02:40:29;26.75;;;12.43;;
60722;SDS011;46574;52.818;6.516;2024-02-21T02:42:56;21.50;;;11.20;;
60722;SDS011;46574;52.818;6.516;2024-02-21T02:45:22;21.25;;;11.05;;
60722;SDS011;46574;52.818;6.516;2024-02-21T02:47:55;21.77;;;10.88;;
60722;SDS011;46574;52.818;6.516;2024-02-21T02:50:22;23.45;;;10.70;;
60722;SDS011;46574;52.818;6.516;2024-02-21T02:52:51;28.52;;;11.00;;
60722;SDS011;46574;52.818;6.516;2024-02-21T02:55:17;28.13;;;11.73;;
60722;SDS011;46574;52.818;6.516;2024-02-21T02:57:43;25.23;;;12.50;;
60722;SDS011;46574;52.818;6.516;2024-02-21T03:00:12;25.33;;;11.45;;
60722;SDS011;46574;52.818;6.516;2024-02-21T03:02:41;24.35;;;11.52;;
60722;SDS011;46574;52.818;6.516;2024-02-21T03:05:11;25.98;;;11.57;;
60722;SDS011;46574;52.818;6.516;2024-02-21T03:07:42;28.23;;;11.75;;
60722;SDS011;46574;52.818;6.516;2024-02-21T03:10:09;21.83;;;10.75;;
60722;SDS011;46574;52.818;6.516;2024-02-21T03:12:36;28.20;;;11.15;;
60722;SDS011;46574;52.818;6.516;2024-02-21T03:15:02;22.73;;;10.85;;
60722;SDS011;46574;52.818;6.516;2024-02-21T03:17:29;28.33;;;10.32;;
60722;SDS011;46574;52.818;6.516;2024-02-21T03:19:55;27.02;;;11.52;;
60722;SDS011;46574;52.818;6.516;2024-02-21T03:22:21;26.08;;;11.00;;
60722;SDS011;46574;52.818;6.516;2024-02-21T03:24:47;27.17;;;11.02;;
60722;SDS011;46574;52.818;6.516;2024-02-21T03:27:13;25.90;;;10.90;;
60722;SDS011;46574;52.818;6.516;2024-02-21T03:29:39;26.55;;;10.85;;
60722;SDS011;46574;52.818;6.516;2024-02-21T03:32:04;20.80;;;10.60;;
60722;SDS011;46574;52.818;6.516;2024-02-21T03:34:30;24.85;;;11.15;;
60722;SDS011;46574;52.818;6.516;2024-02-21T03:36:56;28.33;;;11.70;;
60722;SDS011;46574;52.818;6.516;2024-02-21T03:39:21;26.13;;;11.18;;
60722;SDS011;46574;52.818;6.516;2024-02-21T03:41:47;25.80;;;11.57;;
60722;SDS011;46574;52.818;6.516;2024-02-21T03:44:13;21.92;;;11.48;;
60722;SDS011;46574;52.818;6.516;2024-02-21T03:46:39;26.83;;;12.18;;
60722;SDS011;46574;52.818;6.516;2024-02-21T03:49:04;27.48;;;11.45;;
60722;SDS011;46574;52.818;6.516;2024-02-21T03:51:30;28.35;;;11.50;;
60722;SDS011;46574;52.818;6.516;2024-02-21T03:53:56;29.27;;;12.80;;
60722;SDS011;46574;52.818;6.516;2024-02-21T03:56:22;25.98;;;11.80;;
60722;SDS011;46574;52.818;6.516;2024-02-21T03:58:47;26.20;;;11.23;;
60722;SDS011;46574;52.818;6.516;2024-02-21T04:01:14;27.10;;;11.77;;
60722;SDS011;46574;52.818;6.516;2024-02-21T04:03:40;24.70;;;11.98;;
60722;SDS011;46574;52.818;6.516;2024-02-21T04:06:07;30.15;;;12.27;;
60722;SDS011;46574;52.818;6.516;2024-02-21T04:08:33;24.27;;;11.52;;
60722;SDS011;46574;52.818;6.516;2024-02-21T04:10:58;26.75;;;12.10;;
60722;SDS011;46574;52.818;6.516;2024-02-21T04:13:24;31.10;;;11.82;;
60722;SDS011;46574;52.818;6.516;2024-02-21T04:15:50;25.70;;;10.40;;
60722;SDS011;46574;52.818;6.516;2024-02-21T04:18:16;34.03;;;10.68;;
60722;SDS011;46574;52.818;6.516;2024-02-21T04:20:42;25.63;;;12.35;;
60722;SDS011;46574;52.818;6.516;2024-02-21T04:23:07;27.65;;;12.25;;
60722;SDS011;46574;52.818;6.516;2024-02-21T04:25:33;21.27;;;11.13;;
60722;SDS011;46574;52.818;6.516;2024-02-21T04:27:59;28.83;;;11.82;;
60722;SDS011;46574;52.818;6.516;2024-02-21T04:30:24;25.75;;;11.40;;
60722;SDS011;46574;52.818;6.516;2024-02-21T04:32:50;24.90;;;11.70;;
60722;SDS011;46574;52.818;6.516;2024-02-21T04:35:16;24.85;;;11.02;;
60722;SDS011;46574;52.818;6.516;2024-02-21T04:37:41;27.85;;;11.80;;
60722;SDS011;46574;52.818;6.516;2024-02-21T04:40:07;26.13;;;11.38;;
60722;SDS011;46574;52.818;6.516;2024-02-21T04:42:34;25.40;;;11.95;;
60722;SDS011;46574;52.818;6.516;2024-02-21T04:45:00;27.73;;;12.07;;
60722;SDS011;46574;52.818;6.516;2024-02-21T04:47:25;28.80;;;11.65;;
60722;SDS011;46574;52.818;6.516;2024-02-21T04:49:51;29.15;;;12.07;;
60722;SDS011;46574;52.818;6.516;2024-02-21T04:52:17;28.67;;;11.57;;
60722;SDS011;46574;52.818;6.516;2024-02-21T04:54:43;34.70;;;12.05;;
60722;SDS011;46574;52.818;6.516;2024-02-21T04:57:08;29.85;;;11.13;;
60722;SDS011;46574;52.818;6.516;2024-02-21T04:59:35;29.77;;;12.32;;
60722;SDS011;46574;52.818;6.516;2024-02-21T05:02:01;35.33;;;12.77;;
60722;SDS011;46574;52.818;6.516;2024-02-21T05:04:27;25.15;;;12.27;;
60722;SDS011;46574;52.818;6.516;2024-02-21T05:06:53;27.15;;;11.95;;
60722;SDS011;46574;52.818;6.516;2024-02-21T05:09:20;28.63;;;11.48;;
60722;SDS011;46574;52.818;6.516;2024-02-21T05:11:46;26.95;;;11.45;;
60722;SDS011;46574;52.818;6.516;2024-02-21T05:14:12;27.60;;;11.85;;
60722;SDS011;46574;52.818;6.516;2024-02-21T05:16:38;27.83;;;11.48;;
60722;SDS011;46574;52.818;6.516;2024-02-21T05:19:05;30.83;;;12.05;;
60722;SDS011;46574;52.818;6.516;2024-02-21T05:21:30;25.58;;;11.00;;
60722;SDS011;46574;52.818;6.516;2024-02-21T05:23:56;28.70;;;10.57;;
60722;SDS011;46574;52.818;6.516;2024-02-21T05:26:25;26.23;;;11.43;;
60722;SDS011;46574;52.818;6.516;2024-02-21T05:28:52;28.83;;;10.00;;
60722;SDS011;46574;52.818;6.516;2024-02-21T05:31:18;28.20;;;10.70;;
60722;SDS011;46574;52.818;6.516;2024-02-21T05:33:45;23.90;;;10.68;;
60722;SDS011;46574;52.818;6.516;2024-02-21T05:36:11;30.75;;;10.77;;
60722;SDS011;46574;52.818;6.516;2024-02-21T05:38:37;26.20;;;9.23;;
60722;SDS011;46574;52.818;6.516;2024-02-21T05:41:03;29.90;;;10.82;;
60722;SDS011;46574;52.818;6.516;2024-02-21T05:43:29;21.98;;;10.65;;
60722;SDS011;46574;52.818;6.516;2024-02-21T05:45:55;27.05;;;11.10;;
60722;SDS011;46574;52.818;6.516;2024-02-21T05:48:24;26.67;;;10.98;;
60722;SDS011;46574;52.818;6.516;2024-02-21T05:50:50;21.88;;;10.45;;
60722;SDS011;46574;52.818;6.516;2024-02-21T05:53:15;28.30;;;11.85;;
60722;SDS011;46574;52.818;6.516;2024-02-21T05:55:41;27.05;;;11.10;;
60722;SDS011;46574;52.818;6.516;2024-02-21T05:58:07;26.45;;;11.63;;
60722;SDS011;46574;52.818;6.516;2024-02-21T06:00:36;20.05;;;10.32;;
60722;SDS011;46574;52.818;6.516;2024-02-21T06:03:02;24.27;;;11.07;;
60722;SDS011;46574;52.818;6.516;2024-02-21T06:05:28;25.00;;;10.77;;
60722;SDS011;46574;52.818;6.516;2024-02-21T06:07:54;23.55;;;9.43;;
60722;SDS011;46574;52.818;6.516;2024-02-21T06:10:19;23.15;;;10.00;;
60722;SDS011;46574;52.818;6.516;2024-02-21T06:12:45;18.33;;;9.63;;
60722;SDS011;46574;52.818;6.516;2024-02-21T06:15:11;21.30;;;9.65;;
60722;SDS011;46574;52.818;6.516;2024-02-21T06:17:36;23.30;;;9.82;;
60722;SDS011;46574;52.818;6.516;2024-02-21T06:20:02;25.88;;;9.50;;
60722;SDS011;46574;52.818;6.516;2024-02-21T06:22:28;18.80;;;9.30;;
60722;SDS011;46574;52.818;6.516;2024-02-21T06:24:55;18.67;;;9.57;;
60722;SDS011;46574;52.818;6.516;2024-02-21T06:27:20;24.48;;;10.20;;
60722;SDS011;46574;52.818;6.516;2024-02-21T06:29:46;28.13;;;10.73;;
60722;SDS011;46574;52.818;6.516;2024-02-21T06:32:12;26.45;;;11.38;;
60722;SDS011;46574;52.818;6.516;2024-02-21T06:34:37;22.77;;;11.02;;
60722;SDS011;46574;52.818;6.516;2024-02-21T06:37:03;26.33;;;10.77;;
60722;SDS011;46574;52.818;6.516;2024-02-21T06:39:29;19.40;;;11.05;;
60722;SDS011;46574;52.818;6.516;2024-02-21T06:41:55;26.35;;;12.65;;
60722;SDS011;46574;52.818;6.516;2024-02-21T06:44:21;20.75;;;11.63;;
60722;SDS011;46574;52.818;6.516;2024-02-21T06:46:46;21.45;;;12.32;;
60722;SDS011;46574;52.818;6.516;2024-02-21T06:49:12;23.45;;;13.25;;
60722;SDS011;46574;52.818;6.516;2024-02-21T06:51:44;23.73;;;12.85;;
60722;SDS011;46574;52.818;6.516;2024-02-21T06:54:10;23.63;;;12.82;;
60722;SDS011;46574;52.818;6.516;2024-02-21T06:56:36;25.17;;;13.18;;
60722;SDS011;46574;52.818;6.516;2024-02-21T06:59:02;23.00;;;12.27;;
60722;SDS011;46574;52.818;6.516;2024-02-21T07:01:28;23.48;;;12.40;;
60722;SDS011;46574;52.818;6.516;2024-02-21T07:03:54;31.15;;;13.65;;
60722;SDS011;46574;52.818;6.516;2024-02-21T07:06:20;26.65;;;13.77;;
60722;SDS011;46574;52.818;6.516;2024-02-21T07:08:46;25.45;;;13.15;;
60722;SDS011;46574;52.818;6.516;2024-02-21T07:11:11;23.70;;;13.40;;
60722;SDS011;46574;52.818;6.516;2024-02-21T07:13:37;24.63;;;14.18;;
60722;SDS011;46574;52.818;6.516;2024-02-21T07:16:03;27.48;;;14.02;;
60722;SDS011;46574;52.818;6.516;2024-02-21T07:18:29;24.35;;;13.02;;
60722;SDS011;46574;52.818;6.516;2024-02-21T07:20:54;22.38;;;12.75;;
60722;SDS011;46574;52.818;6.516;2024-02-21T07:23:20;28.80;;;14.98;;
60722;SDS011;46574;52.818;6.516;2024-02-21T07:25:46;25.42;;;14.70;;
60722;SDS011;46574;52.818;6.516;2024-02-21T07:28:12;22.48;;;14.13;;
60722;SDS011;46574;52.818;6.516;2024-02-21T07:30:38;27.67;;;13.85;;
60722;SDS011;46574;52.818;6.516;2024-02-21T07:33:04;28.83;;;15.60;;
60722;SDS011;46574;52.818;6.516;2024-02-21T07:35:32;23.45;;;14.60;;
60722;SDS011;46574;52.818;6.516;2024-02-21T07:37:57;26.90;;;14.45;;
60722;SDS011;46574;52.818;6.516;2024-02-21T07:40:23;24.13;;;13.80;;
60722;SDS011;46574;52.818;6.516;2024-02-21T07:42:49;22.17;;;14.10;;
60722;SDS011;46574;52.818;6.516;2024-02-21T07:45:14;25.10;;;14.68;;
60722;SDS011;46574;52.818;6.516;2024-02-21T07:47:40;24.00;;;14.32;;
60722;SDS011;46574;52.818;6.516;2024-02-21T07:50:06;24.15;;;14.85;;
60722;SDS011;46574;52.818;6.516;2024-02-21T07:52:32;26.35;;;14.82;;
60722;SDS011;46574;52.818;6.516;2024-02-21T07:54:58;24.73;;;14.38;;
60722;SDS011;46574;52.818;6.516;2024-02-21T07:57:24;26.08;;;14.35;;
60722;SDS011;46574;52.818;6.516;2024-02-21T07:59:50;25.10;;;14.45;;
60722;SDS011;46574;52.818;6.516;2024-02-21T08:02:15;25.60;;;14.90;;
60722;SDS011;46574;52.818;6.516;2024-02-21T08:04:42;23.25;;;14.50;;
60722;SDS011;46574;52.818;6.516;2024-02-21T08:07:07;26.02;;;15.05;;
60722;SDS011;46574;52.818;6.516;2024-02-21T08:09:34;27.80;;;15.02;;
60722;SDS011;46574;52.818;6.516;2024-02-21T08:12:01;23.63;;;15.23;;
60722;SDS011;46574;52.818;6.516;2024-02-21T08:14:27;21.48;;;15.27;;
60722;SDS011;46574;52.818;6.516;2024-02-21T08:16:53;26.20;;;15.52;;
60722;SDS011;46574;52.818;6.516;2024-02-21T08:19:20;25.52;;;16.40;;
60722;SDS011;46574;52.818;6.516;2024-02-21T08:21:46;26.08;;;17.52;;
60722;SDS011;46574;52.818;6.516;2024-02-21T08:24:12;26.27;;;18.52;;
60722;SDS011;46574;52.818;6.516;2024-02-21T08:26:41;27.83;;;17.42;;
60722;SDS011;46574;52.818;6.516;2024-02-21T08:29:07;26.73;;;18.73;;
60722;SDS011;46574;52.818;6.516;2024-02-21T08:31:33;28.50;;;18.85;;
60722;SDS011;46574;52.818;6.516;2024-02-21T08:33:59;25.52;;;18.75;;
60722;SDS011;46574;52.818;6.516;2024-02-21T08:36:32;27.92;;;18.90;;
60722;SDS011;46574;52.818;6.516;2024-02-21T08:38:58;28.10;;;19.35;;
60722;SDS011;46574;52.818;6.516;2024-02-21T08:41:24;28.40;;;19.05;;
60722;SDS011;46574;52.818;6.516;2024-02-21T08:43:51;27.73;;;19.08;;
60722;SDS011;46574;52.818;6.516;2024-02-21T08:46:17;25.77;;;18.63;;
60722;SDS011;46574;52.818;6.516;2024-02-21T08:48:43;24.17;;;18.08;;
60722;SDS011;46574;52.818;6.516;2024-02-21T08:51:11;28.05;;;19.05;;
60722;SDS011;46574;52.818;6.516;2024-02-21T08:53:40;27.17;;;18.45;;
60722;SDS011;46574;52.818;6.516;2024-02-21T08:56:06;28.20;;;18.33;;
60722;SDS011;46574;52.818;6.516;2024-02-21T08:58:35;28.88;;;18.70;;
60722;SDS011;46574;52.818;6.516;2024-02-21T09:01:02;28.70;;;19.00;;
60722;SDS011;46574;52.818;6.516;2024-02-21T09:03:30;26.63;;;19.17;;
60722;SDS011;46574;52.818;6.516;2024-02-21T09:05:59;29.42;;;19.65;;
60722;SDS011;46574;52.818;6.516;2024-02-21T09:08:25;30.95;;;20.10;;
60722;SDS011;46574;52.818;6.516;2024-02-21T09:10:51;29.60;;;20.52;;
60722;SDS011;46574;52.818;6.516;2024-02-21T09:13:17;30.67;;;20.17;;
60722;SDS011;46574;52.818;6.516;2024-02-21T09:15:43;30.98;;;19.60;;
60722;SDS011;46574;52.818;6.516;2024-02-21T09:18:09;34.78;;;21.00;;
60722;SDS011;46574;52.818;6.516;2024-02-21T09:20:35;32.63;;;20.20;;
60722;SDS011;46574;52.818;6.516;2024-02-21T09:23:00;30.50;;;20.00;;
60722;SDS011;46574;52.818;6.516;2024-02-21T09:25:26;29.30;;;20.65;;
60722;SDS011;46574;52.818;6.516;2024-02-21T09:27:53;32.25;;;20.90;;
60722;SDS011;46574;52.818;6.516;2024-02-21T09:30:19;29.73;;;20.50;;
60722;SDS011;46574;52.818;6.516;2024-02-21T09:32:45;30.95;;;21.77;;
60722;SDS011;46574;52.818;6.516;2024-02-21T09:35:11;31.30;;;20.75;;
60722;SDS011;46574;52.818;6.516;2024-02-21T09:37:38;24.17;;;19.67;;
60722;SDS011;46574;52.818;6.516;2024-02-21T09:40:04;29.00;;;20.33;;
60722;SDS011;46574;52.818;6.516;2024-02-21T09:42:40;29.23;;;20.33;;
60722;SDS011;46574;52.818;6.516;2024-02-21T09:45:19;30.05;;;20.48;;
60722;SDS011;46574;52.818;6.516;2024-02-21T09:50:49;26.75;;;19.65;;
60722;SDS011;46574;52.818;6.516;2024-02-21T09:53:15;30.30;;;20.60;;
60722;SDS011;46574;52.818;6.516;2024-02-21T09:55:42;25.33;;;20.05;;
60722;SDS011;46574;52.818;6.516;2024-02-21T09:58:08;27.38;;;19.95;;
60722;SDS011;46574;52.818;6.516;2024-02-21T10:00:37;29.02;;;20.15;;
60722;SDS011;46574;52.818;6.516;2024-02-21T10:03:03;28.23;;;19.85;;
60722;SDS011;46574;52.818;6.516;2024-02-21T10:05:34;24.95;;;18.80;;
60722;SDS011;46574;52.818;6.516;2024-02-21T10:08:01;30.52;;;20.20;;
60722;SDS011;46574;52.818;6.516;2024-02-21T10:10:27;28.33;;;18.90;;
60722;SDS011;46574;52.818;6.516;2024-02-21T10:12:54;25.52;;;18.77;;
60722;SDS011;46574;52.818;6.516;2024-02-21T10:15:21;25.58;;;18.73;;
60722;SDS011;46574;52.818;6.516;2024-02-21T10:17:48;24.48;;;17.85;;
60722;SDS011;46574;52.818;6.516;2024-02-21T10:20:13;21.17;;;16.25;;
60722;SDS011;46574;52.818;6.516;2024-02-21T10:22:40;25.33;;;16.88;;
60722;SDS011;46574;52.818;6.516;2024-02-21T10:25:09;23.00;;;16.27;;
60722;SDS011;46574;52.818;6.516;2024-02-21T10:27:39;21.05;;;16.90;;
60722;SDS011;46574;52.818;6.516;2024-02-21T10:30:06;26.13;;;16.38;;
60722;SDS011;46574;52.818;6.516;2024-02-21T10:32:33;23.98;;;16.33;;
60722;SDS011;46574;52.818;6.516;2024-02-21T10:35:02;21.88;;;14.45;;
60722;SDS011;46574;52.818;6.516;2024-02-21T10:37:31;18.42;;;14.13;;
60722;SDS011;46574;52.818;6.516;2024-02-21T10:39:57;22.13;;;14.95;;
60722;SDS011;46574;52.818;6.516;2024-02-21T10:42:23;20.80;;;13.35;;
60722;SDS011;46574;52.818;6.516;2024-02-21T10:44:54;18.95;;;13.10;;
60722;SDS011;46574;52.818;6.516;2024-02-21T10:47:29;20.52;;;13.85;;
60722;SDS011;46574;52.818;6.516;2024-02-21T10:49:57;18.73;;;13.15;;
60722;SDS011;46574;52.818;6.516;2024-02-21T10:55:21;20.85;;;12.68;;
60722;SDS011;46574;52.818;6.516;2024-02-21T10:57:52;17.50;;;12.82;;
60722;SDS011;46574;52.818;6.516;2024-02-21T11:00:18;16.80;;;12.18;;
60722;SDS011;46574;52.818;6.516;2024-02-21T11:02:45;16.98;;;11.77;;
60722;SDS011;46574;52.818;6.516;2024-02-21T11:05:12;16.10;;;11.82;;
60722;SDS011;46574;52.818;6.516;2024-02-21T11:07:38;19.95;;;12.23;;
60722;SDS011;46574;52.818;6.516;2024-02-21T11:10:05;19.45;;;12.25;;
60722;SDS011;46574;52.818;6.516;2024-02-21T11:12:45;17.13;;;12.60;;
60722;SDS011;46574;52.818;6.516;2024-02-21T11:15:10;20.85;;;13.35;;
60722;SDS011;46574;52.818;6.516;2024-02-21T11:17:37;17.17;;;12.30;;
60722;SDS011;46574;52.818;6.516;2024-02-21T11:20:14;14.30;;;11.90;;
60722;SDS011;46574;52.818;6.516;2024-02-21T11:22:43;15.50;;;11.10;;
60722;SDS011;46574;52.818;6.516;2024-02-21T11:25:09;15.88;;;10.73;;
60722;SDS011;46574;52.818;6.516;2024-02-21T11:27:37;14.65;;;10.52;;
60722;SDS011;46574;52.818;6.516;2024-02-21T11:30:04;14.73;;;11.05;;
60722;SDS011;46574;52.818;6.516;2024-02-21T11:32:31;16.80;;;11.32;;
60722;SDS011;46574;52.818;6.516;2024-02-21T11:34:57;18.00;;;11.13;;
60722;SDS011;46574;52.818;6.516;2024-02-21T11:37:33;15.93;;;11.60;;
60722;SDS011;46574;52.818;6.516;2024-02-21T11:40:02;17.17;;;11.65;;
60722;SDS011;46574;52.818;6.516;2024-02-21T11:42:28;15.85;;;12.05;;
60722;SDS011;46574;52.818;6.516;2024-02-21T11:44:59;16.35;;;11.95;;
60722;SDS011;46574;52.818;6.516;2024-02-21T11:47:25;17.48;;;12.10;;
60722;SDS011;46574;52.818;6.516;2024-02-21T11:49:53;14.85;;;11.35;;
60722;SDS011;46574;52.818;6.516;2024-02-21T11:52:22;15.80;;;11.90;;
60722;SDS011;46574;52.818;6.516;2024-02-21T11:54:52;17.08;;;11.93;;
60722;SDS011;46574;52.818;6.516;2024-02-21T11:57:19;15.70;;;11.63;;
60722;SDS011;46574;52.818;6.516;2024-02-21T11:59:45;14.25;;;10.82;;
60722;SDS011;46574;52.818;6.516;2024-02-21T12:02:11;14.50;;;11.10;;
60722;SDS011;46574;52.818;6.516;2024-02-21T12:04:38;13.98;;;11.60;;
60722;SDS011;46574;52.818;6.516;2024-02-21T12:07:04;12.88;;;11.48;;
60722;SDS011;46574;52.818;6.516;2024-02-21T12:09:30;16.70;;;13.18;;
60722;SDS011;46574;52.818;6.516;2024-02-21T12:11:57;18.42;;;11.20;;
60722;SDS011;46574;52.818;6.516;2024-02-21T12:14:24;14.30;;;10.63;;
60722;SDS011;46574;52.818;6.516;2024-02-21T12:16:50;15.35;;;11.20;;
60722;SDS011;46574;52.818;6.516;2024-02-21T12:19:16;15.68;;;11.88;;
60722;SDS011;46574;52.818;6.516;2024-02-21T12:21:42;13.93;;;10.90;;
60722;SDS011;46574;52.818;6.516;2024-02-21T12:26:39;12.02;;;9.32;;
60722;SDS011;46574;52.818;6.516;2024-02-21T12:29:05;13.15;;;9.20;;
60722;SDS011;46574;52.818;6.516;2024-02-21T12:31:31;13.05;;;9.35;;
60722;SDS011;46574;52.818;6.516;2024-02-21T12:33:57;12.73;;;8.88;;
60722;SDS011;46574;52.818;6.516;2024-02-21T12:36:22;10.70;;;8.23;;
60722;SDS011;46574;52.818;6.516;2024-02-21T12:38:48;10.80;;;9.27;;
60722;SDS011;46574;52.818;6.516;2024-02-21T12:41:14;11.10;;;8.85;;
60722;SDS011;46574;52.818;6.516;2024-02-21T12:43:40;12.73;;;8.05;;
60722;SDS011;46574;52.818;6.516;2024-02-21T12:46:06;9.32;;;8.10;;
60722;SDS011;46574;52.818;6.516;2024-02-21T12:48:33;10.13;;;7.03;;
60722;SDS011;46574;52.818;6.516;2024-02-21T12:50:59;8.75;;;7.53;;
60722;SDS011;46574;52.818;6.516;2024-02-21T12:53:24;9.48;;;7.65;;
60722;SDS011;46574;52.818;6.516;2024-02-21T12:55:50;8.80;;;6.63;;
60722;SDS011;46574;52.818;6.516;2024-02-21T12:58:16;8.18;;;6.75;;
60722;SDS011;46574;52.818;6.516;2024-02-21T13:00:42;9.35;;;7.18;;
60722;SDS011;46574;52.818;6.516;2024-02-21T13:03:08;8.88;;;7.00;;
60722;SDS011;46574;52.818;6.516;2024-02-21T13:05:37;9.75;;;6.80;;
60722;SDS011;46574;52.818;6.516;2024-02-21T13:08:04;9.15;;;7.63;;
60722;SDS011;46574;52.818;6.516;2024-02-21T13:10:34;7.75;;;6.63;;
60722;SDS011;46574;52.818;6.516;2024-02-21T13:13:00;8.40;;;6.93;;
60722;SDS011;46574;52.818;6.516;2024-02-21T13:15:26;9.80;;;7.20;;
60722;SDS011;46574;52.818;6.516;2024-02-21T13:17:56;8.00;;;7.07;;
60722;SDS011;46574;52.818;6.516;2024-02-21T13:20:22;7.10;;;6.40;;
60722;SDS011;46574;52.818;6.516;2024-02-21T13:22:48;8.85;;;7.20;;
60722;SDS011;46574;52.818;6.516;2024-02-21T13:25:14;10.32;;;7.45;;
60722;SDS011;46574;52.818;6.516;2024-02-21T13:27:43;8.57;;;7.32;;
60722;SDS011;46574;52.818;6.516;2024-02-21T13:30:09;9.05;;;7.95;;
60722;SDS011;46574;52.818;6.516;2024-02-21T13:32:35;10.48;;;8.55;;
60722;SDS011;46574;52.818;6.516;2024-02-21T13:35:01;8.68;;;7.78;;
60722;SDS011;46574;52.818;6.516;2024-02-21T13:37:28;8.82;;;7.65;;
60722;SDS011;46574;52.818;6.516;2024-02-21T13:39:54;10.77;;;7.70;;
60722;SDS011;46574;52.818;6.516;2024-02-21T13:42:20;9.57;;;8.20;;
60722;SDS011;46574;52.818;6.516;2024-02-21T13:44:45;9.40;;;7.95;;
60722;SDS011;46574;52.818;6.516;2024-02-21T13:47:14;10.27;;;8.65;;
60722;SDS011;46574;52.818;6.516;2024-02-21T13:49:40;10.00;;;7.85;;
60722;SDS011;46574;52.818;6.516;2024-02-21T13:52:06;8.90;;;7.53;;
60722;SDS011;46574;52.818;6.516;2024-02-21T13:54:34;12.38;;;8.32;;
60722;SDS011;46574;52.818;6.516;2024-02-21T13:57:00;9.32;;;7.72;;
60722;SDS011;46574;52.818;6.516;2024-02-21T13:59:27;9.25;;;8.18;;
60722;SDS011;46574;52.818;6.516;2024-02-21T14:01:53;10.68;;;8.60;;
60722;SDS011;46574;52.818;6.516;2024-02-21T14:04:19;11.00;;;7.60;;
60722;SDS011;46574;52.818;6.516;2024-02-21T14:06:45;9.55;;;7.72;;
60722;SDS011;46574;52.818;6.516;2024-02-21T14:09:11;8.38;;;7.53;;
60722;SDS011;46574;52.818;6.516;2024-02-21T14:11:39;9.75;;;7.88;;
60722;SDS011;46574;52.818;6.516;2024-02-21T14:14:06;12.25;;;8.90;;
60722;SDS011;46574;52.818;6.516;2024-02-21T14:16:32;11.85;;;8.57;;
60722;SDS011;46574;52.818;6.516;2024-02-21T14:18:58;10.80;;;8.60;;
60722;SDS011;46574;52.818;6.516;2024-02-21T14:21:23;10.75;;;7.60;;
60722;SDS011;46574;52.818;6.516;2024-02-21T14:23:49;8.90;;;7.47;;
60722;SDS011;46574;52.818;6.516;2024-02-21T14:26:15;12.43;;;7.93;;
60722;SDS011;46574;52.818;6.516;2024-02-21T14:28:41;12.35;;;8.25;;
60722;SDS011;46574;52.818;6.516;2024-02-21T14:31:07;11.77;;;7.97;;
60722;SDS011;46574;52.818;6.516;2024-02-21T14:33:37;11.77;;;8.40;;